Alpha Friendship — SVAV9 — position and weather

sailwx.info

Track history (hours):
 
Tides and Currents Weather Stations Pressure Air Temp Water Temp Dewpoint Dewpoint Depression Visibility Wind Speed Wind Dir Waves Ship Positions

Alpha Friendship

Last reported at 2014-Aug-31 09:27 UTC. Time now 2014-Aug-31 10:34 UTC.
Position N 29°48' E 122°06'.

Length 280 m; draft 8.8 m.

Type: Cargo ship. MMSI: 240965000.

Date/timePositionNaut miles runAvg speedWind from/ knotsBaromVisibWave heightAir tempDewpointWater temp
2014-Aug-31 09:27N 29°48' E 122°06'0 0.0
2014-Aug-31 08:32N 29°48' E 122°06'0 0.2
2014-Aug-31 07:33N 29°48' E 122°06'  
2014-Aug-25 06:25N 29°47' E 122°05'0 0.0
2014-Aug-25 05:31N 29°47' E 122°05'0 0.0
2014-Aug-25 04:25N 29°47' E 122°05'0 0.0
2014-Aug-25 03:19N 29°47' E 122°05'0 0.1
2014-Aug-25 02:19N 29°47' E 122°05'0 0.2
2014-Aug-25 01:33N 29°47' E 122°05'2 1.8
2014-Aug-25 00:29N 29°48' E 122°07'0 0.2
2014-Aug-24 23:23N 29°48' E 122°06'0 0.0
2014-Aug-24 22:24N 29°48' E 122°06'0 0.0
2014-Aug-24 21:29N 29°48' E 122°06'0 0.0
2014-Aug-24 20:11N 29°48' E 122°06'0 0.0
2014-Aug-24 19:29N 29°48' E 122°06'0 0.0
2014-Aug-24 18:23N 29°48' E 122°06'0 0.2
2014-Aug-24 17:23N 29°48' E 122°07'0 0.2
2014-Aug-24 16:29N 29°48' E 122°07'0 0.0
2014-Aug-24 15:29N 29°48' E 122°07'0 0.0
2014-Aug-24 14:30N 29°48' E 122°07'0 0.0
2014-Aug-24 13:29N 29°48' E 122°07'0 0.1
2014-Aug-24 12:29N 29°48' E 122°07'0 0.0
2014-Aug-24 11:30N 29°48' E 122°07'5 4.9
2014-Aug-24 10:33N 29°51' E 122°10'3 2.8
2014-Aug-24 09:33N 29°53' E 122°13'3 3.1
2014-Aug-24 08:34N 29°50' E 122°13'9 8.5
2014-Aug-24 07:33N 29°45' E 122°21'9 8.9
2014-Aug-24 06:33N 29°47' E 122°31'10 9.7
2014-Aug-24 05:34N 29°51' E 122°41'49 8.9
2014-Aug-24 00:04N 30°16' E 123°30'8 8.9
2014-Aug-23 23:09N 30°21' E 123°38'25 9.7
2014-Aug-23 20:31N 30°45' E 123°48'1111.1
2014-Aug-23 19:33N 30°55' E 123°49'340 9.9
2014-Aug-22 09:23N 35°57' E 120°41'1011.4
2014-Aug-22 08:32N 35°59' E 120°30'1110.7
2014-Aug-22 07:33N 36°02' E 120°17'4 1.0
2014-Aug-22 03:32N 36°05' E 120°14'0 0.1
2014-Aug-22 00:14N 36°05' E 120°14'0 0.1
2014-Aug-21 21:29N 36°05' E 120°14'0 0.0
2014-Aug-21 20:23N 36°05' E 120°14'0 0.1
2014-Aug-21 18:10N 36°05' E 120°15'2 4.0
2014-Aug-21 17:33N 36°03' E 120°15'  
Track history (hours):
 
Tides and Currents Weather Stations Pressure Air Temp Water Temp Dewpoint Dewpoint Depression Visibility Wind Speed Wind Dir Waves Ship Positions

Alpha Friendship

Last reported at 2014-Aug-31 09:27 UTC. Time now 2014-Aug-31 10:34 UTC.
Position N 29°48' E 122°06'.

Length 280 m; draft 8.8 m.

Type: Cargo ship. MMSI: 240965000.

Date/timePositionNaut miles runAvg speedWind from/ knotsBaromVisibWave heightAir tempDewpointWater temp
2014-Aug-31 09:27N 29°48' E 122°06'0 0.0
2014-Aug-31 08:32N 29°48' E 122°06'0 0.2
2014-Aug-31 07:33N 29°48' E 122°06'  
2014-Aug-25 06:25N 29°47' E 122°05'0 0.0
2014-Aug-25 05:31N 29°47' E 122°05'0 0.0
2014-Aug-25 04:25N 29°47' E 122°05'0 0.0
2014-Aug-25 03:19N 29°47' E 122°05'0 0.1
2014-Aug-25 02:19N 29°47' E 122°05'0 0.2
2014-Aug-25 01:33N 29°47' E 122°05'2 1.8
2014-Aug-25 00:29N 29°48' E 122°07'0 0.2
2014-Aug-24 23:23N 29°48' E 122°06'0 0.0
2014-Aug-24 22:24N 29°48' E 122°06'0 0.0
2014-Aug-24 21:29N 29°48' E 122°06'0 0.0
2014-Aug-24 20:11N 29°48' E 122°06'0 0.0
2014-Aug-24 19:29N 29°48' E 122°06'0 0.0
2014-Aug-24 18:23N 29°48' E 122°06'0 0.2
2014-Aug-24 17:23N 29°48' E 122°07'0 0.2
2014-Aug-24 16:29N 29°48' E 122°07'0 0.0
2014-Aug-24 15:29N 29°48' E 122°07'0 0.0
2014-Aug-24 14:30N 29°48' E 122°07'0 0.0
2014-Aug-24 13:29N 29°48' E 122°07'0 0.1
2014-Aug-24 12:29N 29°48' E 122°07'0 0.0
2014-Aug-24 11:30N 29°48' E 122°07'5 4.9
2014-Aug-24 10:33N 29°51' E 122°10'3 2.8
2014-Aug-24 09:33N 29°53' E 122°13'3 3.1
2014-Aug-24 08:34N 29°50' E 122°13'9 8.5
2014-Aug-24 07:33N 29°45' E 122°21'9 8.9
2014-Aug-24 06:33N 29°47' E 122°31'10 9.7
2014-Aug-24 05:34N 29°51' E 122°41'49 8.9
2014-Aug-24 00:04N 30°16' E 123°30'8 8.9
2014-Aug-23 23:09N 30°21' E 123°38'25 9.7
2014-Aug-23 20:31N 30°45' E 123°48'1111.1
2014-Aug-23 19:33N 30°55' E 123°49'340 9.9
2014-Aug-22 09:23N 35°57' E 120°41'1011.4
2014-Aug-22 08:32N 35°59' E 120°30'1110.7
2014-Aug-22 07:33N 36°02' E 120°17'4 1.0
2014-Aug-22 03:32N 36°05' E 120°14'0 0.1
2014-Aug-22 00:14N 36°05' E 120°14'0 0.1
2014-Aug-21 21:29N 36°05' E 120°14'0 0.0
2014-Aug-21 20:23N 36°05' E 120°14'0 0.1
2014-Aug-21 18:10N 36°05' E 120°15'2 4.0
2014-Aug-21 17:33N 36°03' E 120°15'  

Dump ship's entire track history